Time;durP1;ratioP1;P1;durP2;ratioP2;P2;SDS_P1;SDS_P2;PMS_P1;PMS_P2;Temp;Humidity;BMP_temperature;BMP_pressure;BME280_temperature;BME280_humidity;BME280_pressure;Samples;Min_cycle;Max_cycle;Signal;HPM_P1;HPM_P2
2021/09/29 00:02:17;;;;;;;11.55;5.57;;;;;;;;;;4980901;28;20088;-64
2021/09/29 00:04:43;;;;;;;11.43;5.28;;;;;;;;;;4983137;28;20046;-64
2021/09/29 00:07:09;;;;;;;11.55;4.47;;;;;;;;;;4982306;28;20146;-65
2021/09/29 00:09:35;;;;;;;8.43;5.00;;;;;;;;;;4982547;28;20026;-65
2021/09/29 00:12:01;;;;;;;8.13;5.15;;;;;;;;;;4983164;28;20431;-65
2021/09/29 00:14:27;;;;;;;11.68;4.97;;;;;;;;;;4979544;28;20150;-65
2021/09/29 00:16:53;;;;;;;11.18;5.63;;;;;;;;;;4982625;28;20150;-65
2021/09/29 00:19:19;;;;;;;11.38;5.03;;;;;;;;;;4982955;28;20034;-64
2021/09/29 00:21:45;;;;;;;9.32;5.40;;;;;;;;;;4981979;28;20054;-65
2021/09/29 00:24:11;;;;;;;11.77;5.25;;;;;;;;;;4981374;28;20045;-64
2021/09/29 00:26:37;;;;;;;8.27;5.00;;;;;;;;;;4982925;28;20074;-65
2021/09/29 00:29:03;;;;;;;9.82;5.07;;;;;;;;;;4980661;28;20126;-64
2021/09/29 00:34:12;;;;;;;12.32;5.72;;;;;;;;;;4979032;28;20754;-64
2021/09/29 00:36:38;;;;;;;11.23;5.60;;;;;;;;;;4982535;28;20159;-64
2021/09/29 00:39:04;;;;;;;13.77;6.00;;;;;;;;;;4980797;28;20694;-64
2021/09/29 00:41:30;;;;;;;16.38;7.65;;;;;;;;;;4982213;28;20037;-64
2021/09/29 00:43:56;;;;;;;17.42;7.63;;;;;;;;;;4982863;28;20408;-64
2021/09/29 00:46:21;;;;;;;13.55;6.50;;;11.30;99.90;;;;;;4982405;28;20046;-64
2021/09/29 00:48:47;;;;;;;12.13;6.00;;;;;;;;;;4981784;28;20788;-64
2021/09/29 00:51:13;;;;;;;12.15;5.97;;;;;;;;;;4981439;28;20113;-64
2021/09/29 00:53:39;;;;;;;17.73;6.68;;;;;;;;;;4962952;28;20039;-64
2021/09/29 00:56:05;;;;;;;11.55;5.85;;;;;;;;;;4980723;28;20089;-64
2021/09/29 00:58:31;;;;;;;9.70;5.47;;;;;;;;;;4981642;28;20131;-65
2021/09/29 01:00:57;;;;;;;25.33;7.57;;;;;;;;;;4981872;28;20042;-64
2021/09/29 01:03:23;;;;;;;18.90;7.38;;;;;;;;;;4982372;28;20485;-65
2021/09/29 01:05:49;;;;;;;44.88;9.55;;;;;;;;;;4980432;28;20034;-64
2021/09/29 01:08:15;;;;;;;24.92;8.82;;;;;;;;;;4981054;28;20798;-64
2021/09/29 01:10:41;;;;;;;25.20;10.77;;;;;;;;;;4980792;28;20857;-64
2021/09/29 01:13:07;;;;;;;79.28;41.70;;;;;;;;;;4980489;28;20034;-64
2021/09/29 01:15:33;;;;;;;66.03;15.48;;;;;;;;;;4981377;28;20046;-64
2021/09/29 01:17:59;;;;;;;105.22;38.05;;;;;;;;;;4982175;28;20068;-64
2021/09/29 01:20:25;;;;;;;24.02;9.95;;;;;;;;;;4980221;28;20134;-64
2021/09/29 01:22:52;;;;;;;21.02;10.10;;;;;;;;;;4980479;28;20057;-64
2021/09/29 01:25:18;;;;;;;357.40;174.80;;;;;;;;;;4980131;28;20056;-64
2021/09/29 01:27:44;;;;;;;467.45;315.25;;;;;;;;;;4981568;28;20573;-64
2021/09/29 01:30:10;;;;;;;334.73;142.52;;;;;;;;;;4981179;28;20048;-64
2021/09/29 01:35:04;;;;;;;276.02;169.07;;;;;;;;;;5046574;28;20419;-64
2021/09/29 01:37:30;;;;;;;494.35;272.63;;;;;;;;;;5039863;28;20128;-65
2021/09/29 01:39:56;;;;;;;125.65;36.17;;;;;;;;;;5052887;28;20059;-65
2021/09/29 01:42:23;;;;;;;191.73;124.05;;;;;;;;;;5055880;28;20843;-65
2021/09/29 01:44:49;;;;;;;220.02;63.47;;;;;;;;;;5054282;28;20078;-65
2021/09/29 01:47:15;;;;;;;590.03;234.52;;;;;;;;;;5051363;28;20107;-65
2021/09/29 01:49:41;;;;;;;109.65;18.85;;;;;;;;;;5045599;28;20021;-65
2021/09/29 01:52:07;;;;;;;140.90;41.88;;;;;;;;;;5042765;28;20485;-65
2021/09/29 01:54:33;;;;;;;66.93;15.13;;;;;;;;;;5046583;28;20070;-65
2021/09/29 01:56:59;;;;;;;52.67;16.70;;;;;;;;;;5048945;28;20063;-65
2021/09/29 01:59:25;;;;;;;56.28;14.02;;;;;;;;;;5051420;28;20036;-65
2021/09/29 02:01:51;;;;;;;27.85;11.70;;;;;;;;;;5053107;28;20159;-65
2021/09/29 02:04:17;;;;;;;49.80;14.07;;;;;;;;;;5055093;28;20037;-65
2021/09/29 02:06:44;;;;;;;23.02;10.50;;;;;;;;;;5052135;28;20045;-65
2021/09/29 02:09:10;;;;;;;19.85;9.82;;;;;;;;;;5046100;28;20141;-65
2021/09/29 02:11:36;;;;;;;20.38;9.38;;;;;;;;;;5042482;28;20614;-65
2021/09/29 02:14:02;;;;;;;22.08;11.30;;;;;;;;;;5045428;28;20067;-65
2021/09/29 02:16:28;;;;;;;18.95;9.52;;;;;;;;;;5047061;28;20139;-65
2021/09/29 02:18:54;;;;;;;17.40;8.98;;;;;;;;;;5050148;28;20134;-65
2021/09/29 02:21:20;;;;;;;19.38;9.73;;;;;;;;;;5052445;28;20020;-65
2021/09/29 02:23:46;;;;;;;24.35;12.23;;;;;;;;;;5053939;28;20408;-65
2021/09/29 02:26:12;;;;;;;22.10;10.57;;;;;;;;;;5054433;28;20027;-65
2021/09/29 02:28:38;;;;;;;29.15;11.32;;;;;;;;;;5040054;28;20032;-65
2021/09/29 02:31:04;;;;;;;20.35;10.70;;;;;;;;;;5045329;28;20646;-65
2021/09/29 02:33:30;;;;;;;18.77;9.63;;;;;;;;;;5047119;28;20060;-65
2021/09/29 02:35:56;;;;;;;21.90;10.00;;;;;;;;;;5040173;28;20033;-65
2021/09/29 02:38:22;;;;;;;22.17;10.73;;;;;;;;;;5041669;28;20037;-65
2021/09/29 02:40:48;;;;;;;20.92;10.45;;;;;;;;;;5038085;28;20413;-65
2021/09/29 02:43:14;;;;;;;25.45;10.68;;;;;;;;;;5037258;28;20059;-65
2021/09/29 02:45:40;;;;;;;22.42;10.75;;;;;;;;;;5026730;28;20494;-65
2021/09/29 02:48:06;;;;;;;26.45;11.48;;;;;;;;;;5026129;28;20033;-65
2021/09/29 02:50:32;;;;;;;27.95;12.55;;;;;;;;;;5025977;28;21806;-65
2021/09/29 02:52:58;;;;;;;22.98;10.43;;;;;;;;;;5028641;28;20036;-65
2021/09/29 02:55:24;;;;;;;29.35;13.38;;;;;;;;;;5031382;28;20061;-65
2021/09/29 02:57:50;;;;;;;32.75;12.95;;;;;;;;;;5033129;28;20041;-65
2021/09/29 03:00:16;;;;;;;27.40;12.68;;;;;;;;;;5034678;28;20132;-65
2021/09/29 03:02:42;;;;;;;22.98;11.02;;;12.30;99.90;;;;;;5037989;28;20043;-65
2021/09/29 03:05:08;;;;;;;26.45;10.85;;;;;;;;;;5037479;28;20045;-65
2021/09/29 03:07:34;;;;;;;26.73;11.35;;;;;;;;;;5026484;28;20140;-65
2021/09/29 03:10:00;;;;;;;27.58;11.82;;;;;;;;;;5034693;28;20035;-65
2021/09/29 03:12:25;;;;;;;19.23;10.15;;;12.70;99.90;;;;;;5026941;28;20102;-65
2021/09/29 03:14:51;;;;;;;19.90;9.75;;;;;;;;;;5033488;28;20029;-65
2021/09/29 03:17:17;;;;;;;18.80;9.55;;;;;;;;;;5028806;28;20101;-65
2021/09/29 03:19:43;;;;;;;23.75;10.55;;;;;;;;;;5028355;28;20044;-65
2021/09/29 03:22:09;;;;;;;19.38;9.88;;;;;;;;;;5026287;28;20039;-65
2021/09/29 03:24:35;;;;;;;17.35;9.38;;;;;;;;;;5022611;28;20076;-65
2021/09/29 03:27:01;;;;;;;18.50;9.50;;;12.50;99.90;;;;;;5028380;28;20029;-65
2021/09/29 03:29:27;;;;;;;21.00;10.60;;;;;;;;;;5022767;28;20382;-65
2021/09/29 03:31:53;;;;;;;19.70;10.05;;;;;;;;;;5026254;28;20434;-65
2021/09/29 03:34:18;;;;;;;18.58;9.43;;;12.20;99.90;;;;;;5027116;28;20091;-65
2021/09/29 03:36:44;;;;;;;21.92;10.25;;;11.70;99.90;;;;;;5024417;28;20037;-65
2021/09/29 03:39:10;;;;;;;17.15;8.77;;;;;;;;;;5032372;28;20037;-65
2021/09/29 03:41:36;;;;;;;12.82;8.02;;;;;;;;;;5034523;28;20116;-65
2021/09/29 03:44:02;;;;;;;15.93;8.60;;;;;;;;;;5027099;28;20045;-65
2021/09/29 03:46:28;;;;;;;16.33;8.38;;;;;;;;;;5027687;28;20280;-65
2021/09/29 03:48:54;;;;;;;17.17;8.77;;;;;;;;;;5016520;28;20044;-65
2021/09/29 03:51:20;;;;;;;15.05;7.95;;;;;;;;;;5024053;28;20087;-65
2021/09/29 03:53:46;;;;;;;15.40;8.18;;;;;;;;;;5026145;28;20047;-65
2021/09/29 03:56:12;;;;;;;16.85;8.13;;;;;;;;;;5027722;28;20041;-65
2021/09/29 03:58:38;;;;;;;15.52;8.35;;;;;;;;;;5028329;28;20124;-65
2021/09/29 04:01:04;;;;;;;16.42;9.13;;;;;;;;;;5031478;28;20683;-65
2021/09/29 04:03:30;;;;;;;17.83;8.60;;;;;;;;;;5027515;28;20655;-65
2021/09/29 04:05:56;;;;;;;18.83;9.25;;;;;;;;;;5026831;28;20037;-65
2021/09/29 04:08:22;;;;;;;15.00;7.68;;;;;;;;;;5027770;28;20727;-65
2021/09/29 04:10:48;;;;;;;16.73;8.32;;;;;;;;;;5020697;28;20055;-65
2021/09/29 04:13:14;;;;;;;24.38;10.73;;;;;;;;;;5022743;28;20037;-65
2021/09/29 04:15:40;;;;;;;41.22;13.52;;;;;;;;;;5026786;28;20056;-65
2021/09/29 04:18:06;;;;;;;33.35;13.07;;;;;;;;;;5027458;28;20048;-65
2021/09/29 04:20:31;;;;;;;32.80;12.82;;;;;;;;;;5027987;28;20072;-65
2021/09/29 04:22:58;;;;;;;42.88;14.43;;;;;;;;;;5023859;28;20049;-65
2021/09/29 04:25:24;;;;;;;41.25;14.20;;;;;;;;;;5023230;28;20528;-65
2021/09/29 04:27:50;;;;;;;43.85;14.88;;;;;;;;;;5029557;28;20029;-65
2021/09/29 04:30:16;;;;;;;52.88;15.35;;;;;;;;;;5022997;28;20397;-65
2021/09/29 04:32:41;;;;;;;50.38;15.65;;;;;;;;;;5035435;28;20391;-65
2021/09/29 04:35:07;;;;;;;48.00;16.23;;;;;;;;;;5035594;28;20165;-65
2021/09/29 04:37:33;;;;;;;52.75;15.70;;;12.80;99.90;;;;;;5028331;28;20030;-65
2021/09/29 04:39:59;;;;;;;54.53;15.88;;;;;;;;;;5028754;28;20143;-65
2021/09/29 04:42:24;;;;;;;49.92;15.52;;;12.90;99.90;;;;;;5026310;28;20086;-65
2021/09/29 04:44:50;;;;;;;50.40;16.23;;;13.30;99.90;;;;;;5028731;28;20022;-65
2021/09/29 04:47:15;;;;;;;50.17;15.98;;;12.70;99.90;;;;;;5036085;28;20120;-65
2021/09/29 04:49:41;;;;;;;64.97;19.08;;;12.80;99.90;;;;;;5037320;28;20059;-66
2021/09/29 04:52:07;;;;;;;57.78;17.55;;;;;;;;;;5036412;28;20121;-65
2021/09/29 04:54:33;;;;;;;43.80;15.52;;;;;;;;;;5034182;28;20039;-65
2021/09/29 04:56:59;;;;;;;64.47;17.67;;;;;;;;;;5028964;28;20440;-65
2021/09/29 04:59:24;;;;;;;43.35;15.30;;;12.70;99.90;;;;;;5025850;28;20338;-65
2021/09/29 05:01:50;;;;;;;57.05;17.77;;;13.60;99.90;;;;;;5026447;28;20821;-65
2021/09/29 05:04:16;;;;;;;55.97;16.80;;;12.50;99.90;;;;;;5025921;28;20040;-65
2021/09/29 05:06:41;;;;;;;58.78;17.33;;;13.10;99.90;;;;;;5033271;28;20033;-65
2021/09/29 05:09:07;;;;;;;58.03;17.38;;;13.90;99.90;;;;;;5021115;28;20781;-65
2021/09/29 05:11:32;;;;;;;63.35;18.38;;;13.30;99.90;;;;;;5019821;28;20029;-65
2021/09/29 05:13:58;;;;;;;66.13;18.77;;;12.60;99.90;;;;;;5028157;28;20042;-65
2021/09/29 05:16:24;;;;;;;65.97;19.73;;;;;;;;;;5028229;28;20401;-65
2021/09/29 05:18:50;;;;;;;75.90;20.08;;;;;;;;;;5022732;28;20037;-65
2021/09/29 05:21:16;;;;;;;67.32;20.67;;;;;;;;;;5026619;28;20253;-65
2021/09/29 05:23:41;;;;;;;66.05;20.05;;;13.70;99.90;;;;;;5026662;28;20409;-65
2021/09/29 05:26:07;;;;;;;88.25;25.95;;;;;;;;;;5024982;28;20041;-66
2021/09/29 05:28:33;;;;;;;68.18;19.45;;;;;;;;;;5024989;28;20037;-65
2021/09/29 05:30:59;;;;;;;71.15;20.35;;;13.20;99.90;;;;;;5026869;28;20038;-65
2021/09/29 05:33:24;;;;;;;80.45;21.88;;;12.50;99.90;;;;;;5018554;28;20048;-65
2021/09/29 05:35:50;;;;;;;67.60;19.35;;;14.00;99.90;;;;;;5016572;28;20065;-65
2021/09/29 05:38:15;;;;;;;62.75;18.75;;;13.70;99.90;;;;;;5012712;28;20069;-65
2021/09/29 05:40:41;;;;;;;86.75;23.30;;;13.90;99.90;;;;;;5021085;28;20025;-65
2021/09/29 05:43:06;;;;;;;70.65;20.42;;;13.50;99.90;;;;;;5018962;28;20045;-65
2021/09/29 05:45:32;;;;;;;80.15;21.58;;;13.80;99.90;;;;;;5021057;28;20408;-67
2021/09/29 05:47:58;;;;;;;65.43;20.52;;;;;;;;;;5021588;28;20116;-67
2021/09/29 05:50:23;;;;;;;72.28;19.92;;;14.10;99.90;;;;;;5025454;28;20049;-68
2021/09/29 05:52:49;;;;;;;73.38;21.95;;;13.20;99.90;;;;;;5021883;28;20025;-67
2021/09/29 05:55:14;;;;;;;72.30;20.95;;;13.10;99.90;;;;;;5027955;28;20033;-65
2021/09/29 05:57:40;;;;;;;67.00;23.08;;;13.50;99.90;;;;;;5022134;28;20029;-68
2021/09/29 06:00:05;;;;;;;78.68;26.35;;;14.40;99.90;;;;;;5027674;28;20057;-67
2021/09/29 06:02:36;;;;;;;63.15;20.48;;;13.80;99.90;;;;;;5026014;28;20485;-67
2021/09/29 06:05:02;;;;;;;59.60;17.05;;;13.50;99.90;;;;;;5025988;28;20044;-67
2021/09/29 06:07:27;;;;;;;59.72;20.17;;;12.80;99.90;;;;;;5024091;28;20936;-67
2021/09/29 06:09:53;;;;;;;53.97;17.92;;;13.10;99.90;;;;;;5027741;28;20041;-67
2021/09/29 06:12:18;;;;;;;57.88;18.58;;;13.90;99.90;;;;;;5031571;28;20033;-67
2021/09/29 06:14:49;;;;;;;55.20;19.65;;;13.90;99.90;;;;;;5024084;28;20811;-67
2021/09/29 06:17:24;;;;;;;58.97;18.60;;;14.40;99.90;;;;;;5011424;28;20045;-67
2021/09/29 06:19:50;;;;;;;51.03;17.77;;;14.30;99.90;;;;;;5025757;28;20033;-67
2021/09/29 06:22:16;;;;;;;58.10;19.67;;;13.30;99.90;;;;;;5025115;28;20112;-67
2021/09/29 06:24:42;;;;;;;56.60;17.05;;;13.30;99.90;;;;;;5031779;28;20481;-67
2021/09/29 06:27:07;;;;;;;49.70;17.80;;;13.50;99.90;;;;;;5020570;28;20038;-68
2021/09/29 06:29:33;;;;;;;51.97;18.08;;;14.20;99.90;;;;;;5025347;28;20029;-68
2021/09/29 06:31:58;;;;;;;54.58;18.50;;;14.70;99.90;;;;;;5028302;28;20036;-67
2021/09/29 06:34:24;;;;;;;63.55;20.45;;;14.10;99.90;;;;;;5021719;28;20043;-68
2021/09/29 06:36:50;;;;;;;57.13;20.88;;;;;;;;;;5029705;28;20091;-67
2021/09/29 06:39:16;;;;;;;54.63;18.92;;;14.10;99.90;;;;;;5026286;28;20036;-68
2021/09/29 06:41:41;;;;;;;56.67;19.63;;;14.20;99.90;;;;;;5026828;28;20044;-67
2021/09/29 06:44:10;;;;;;;70.47;20.63;;;14.30;99.90;;;;;;5015016;28;20034;-68
2021/09/29 06:46:35;;;;;;;60.50;19.30;;;14.50;99.90;;;;;;5031348;28;20560;-75
2021/09/29 06:49:01;;;;;;;64.32;20.63;;;14.20;99.90;;;;;;5025165;28;20855;-76
2021/09/29 06:51:27;;;;;;;56.03;20.50;;;14.40;99.90;;;;;;5026551;28;20059;-77
2021/09/29 06:53:52;;;;;;;66.93;22.20;;;14.40;99.90;;;;;;5026097;28;20079;-76
2021/09/29 06:56:19;;;;;;;52.85;21.13;;;;;;;;;;5032995;28;20512;-77
2021/09/29 06:58:46;;;;;;;69.07;20.67;;;;;;;;;;5011851;28;20151;-76
2021/09/29 07:01:11;;;;;;;47.80;19.17;;;14.80;99.90;;;;;;5031549;28;20037;-67
2021/09/29 07:03:37;;;;;;;62.17;22.13;;;;;;;;;;5030057;28;20036;-65
2021/09/29 07:06:03;;;;;;;60.17;23.08;;;13.70;99.90;;;;;;5019347;28;20119;-68
2021/09/29 07:08:28;;;;;;;65.00;21.67;;;14.60;99.90;;;;;;5021369;28;20033;-67
2021/09/29 07:10:54;;;;;;;62.85;23.17;;;14.80;99.90;;;;;;5026675;28;20033;-67
2021/09/29 07:13:20;;;;;;;55.53;20.48;;;;;;;;;;5026310;28;20037;-67
2021/09/29 07:15:45;;;;;;;59.85;19.83;;;14.60;99.90;;;;;;5032649;28;20622;-69
2021/09/29 07:18:12;;;;;;;75.65;25.65;;;14.50;99.90;;;;;;5022239;28;20033;-67
2021/09/29 07:20:37;;;;;;;63.65;22.13;;;14.70;99.90;;;;;;5027718;28;20037;-68
2021/09/29 07:23:03;;;;;;;62.25;22.70;;;14.80;99.90;;;;;;5027244;28;20111;-67
2021/09/29 07:25:30;;;;;;;53.75;21.23;;;15.30;99.90;;;;;;5029899;28;20029;-67
2021/09/29 07:27:57;;;;;;;66.13;22.05;;;15.00;99.90;;;;;;5020052;28;20037;-67
2021/09/29 07:30:22;;;;;;;62.38;23.48;;;15.00;99.90;;;;;;5017548;28;20032;-67
2021/09/29 07:32:51;;;;;;;66.57;22.58;;;14.90;99.90;;;;;;5018158;28;20057;-67
2021/09/29 07:35:17;;;;;;;75.60;25.02;;;14.70;99.90;;;;;;5016537;28;20049;-68
2021/09/29 07:37:42;;;;;;;75.35;26.17;;;14.90;99.90;;;;;;5016338;28;20032;-67
2021/09/29 07:40:08;;;;;;;70.80;24.20;;;14.70;99.90;;;;;;5031437;28;20595;-67
2021/09/29 07:42:34;;;;;;;73.43;25.23;;;14.70;99.90;;;;;;5028348;28;20430;-68
2021/09/29 07:44:59;;;;;;;71.32;23.90;;;14.30;99.90;;;;;;5029748;28;20108;-68
2021/09/29 07:47:25;;;;;;;77.90;26.75;;;14.30;99.90;;;;;;5025432;28;20548;-65
2021/09/29 07:49:50;;;;;;;71.95;25.92;;;14.60;99.90;;;;;;5032987;28;20139;-68
2021/09/29 07:52:16;;;;;;;71.70;24.15;;;14.30;99.90;;;;;;5029617;28;20033;-64
2021/09/29 07:54:41;;;;;;;73.80;24.42;;;14.10;99.90;;;;;;5022214;28;20079;-64
2021/09/29 07:57:07;;;;;;;71.90;25.30;;;;;;;;;;5020714;28;20037;-67
2021/09/29 07:59:33;;;;;;;66.45;23.15;;;;;;;;;;5032534;28;20454;-70
2021/09/29 08:01:59;;;;;;;69.70;23.15;;;14.50;99.90;;;;;;5027152;28;20087;-65
2021/09/29 08:04:25;;;;;;;75.35;25.00;;;14.30;99.90;;;;;;5025475;28;20034;-64
2021/09/29 08:06:51;;;;;;;87.00;26.23;;;13.70;99.90;;;;;;5026899;28;20060;-78
2021/09/29 08:09:16;;;;;;;60.95;20.98;;;14.10;99.90;;;;;;5028921;28;20032;-68
2021/09/29 08:11:42;;;;;;;63.58;21.42;;;14.60;99.90;;;;;;5034137;28;20039;-66
2021/09/29 08:14:07;;;;;;;63.17;21.77;;;14.60;99.90;;;;;;5028514;28;20048;-67
2021/09/29 08:16:33;;;;;;;70.22;23.73;;;14.70;99.90;;;;;;5023238;28;20505;-66
2021/09/29 08:18:58;;;;;;;59.97;22.13;;;14.50;99.90;;;;;;5020907;28;20672;-66
2021/09/29 08:21:28;;;;;;;59.50;23.45;;;14.70;99.90;;;;;;5023062;28;20041;-65
2021/09/29 08:23:57;;;;;;;51.88;19.33;;;14.50;99.90;;;;;;5022788;28;20183;-66
2021/09/29 08:31:49;;;;;;;44.15;16.10;;;14.40;99.90;;;;;;5031978;28;20037;-65
2021/09/29 08:39:14;;;;;;;46.58;20.23;;;14.30;99.90;;;;;;5014301;28;20493;-64
2021/09/29 08:44:37;;;;;;;28.75;12.25;;;14.40;99.90;;;;;;5011270;28;20041;-65
2021/09/29 08:47:20;;;;;;;30.38;13.52;;;14.70;99.90;;;;;;5012625;28;20029;-66
2021/09/29 08:50:07;;;;;;;32.80;12.55;;;14.40;99.90;;;;;;5011479;28;20080;-66
2021/09/29 09:17:11;;;;;;;18.20;8.80;;;14.20;99.90;;;;;;5015662;28;20045;-65
2021/09/29 09:19:36;;;;;;;17.52;9.00;;;14.00;99.90;;;;;;5011567;28;20045;-65
2021/09/29 09:22:02;;;;;;;20.02;8.80;;;14.30;99.90;;;;;;5013310;28;20037;-65
2021/09/29 09:24:27;;;;;;;19.98;8.57;;;14.30;99.90;;;;;;5009476;28;20029;-65
2021/09/29 09:26:53;;;;;;;18.27;7.32;;;14.20;99.90;;;;;;5018029;28;20505;-65
2021/09/29 09:29:18;;;;;;;16.33;6.72;;;14.30;99.90;;;;;;5003715;28;20409;-66
2021/09/29 09:31:45;;;;;;;19.55;9.00;;;14.50;99.90;;;;;;5012945;28;20697;-65
2021/09/29 09:34:10;;;;;;;22.70;7.90;;;14.50;99.90;;;;;;5011086;28;20120;-65
2021/09/29 09:36:36;;;;;;;16.83;8.02;;;14.70;99.90;;;;;;5014863;28;20742;-65
2021/09/29 09:39:01;;;;;;;13.95;7.40;;;14.40;99.90;;;;;;5009509;28;20048;-65
2021/09/29 09:41:27;;;;;;;15.27;7.50;;;14.70;99.90;;;;;;5009325;28;20603;-65
2021/09/29 09:43:53;;;;;;;14.90;7.72;;;14.90;99.90;;;;;;5012546;28;20017;-65
2021/09/29 09:46:21;;;;;;;15.23;6.72;;;14.60;99.90;;;;;;5010680;28;20763;-65
2021/09/29 09:48:46;;;;;;;16.40;7.70;;;14.70;99.90;;;;;;5017019;28;20041;-65
2021/09/29 09:51:15;;;;;;;14.75;7.60;;;15.10;99.90;;;;;;5009859;28;20034;-65
2021/09/29 09:53:40;;;;;;;13.77;7.18;;;15.10;99.90;;;;;;5011420;28;20045;-65
2021/09/29 09:56:06;;;;;;;14.48;7.15;;;15.20;99.90;;;;;;5020163;28;20042;-65
2021/09/29 09:58:31;;;;;;;16.02;7.72;;;15.10;99.90;;;;;;5020179;28;20037;-65
2021/09/29 10:00:57;;;;;;;14.10;6.95;;;15.20;99.90;;;;;;5018378;28;20061;-65
2021/09/29 10:03:22;;;;;;;13.65;7.53;;;15.10;99.90;;;;;;5015416;28;20029;-64
2021/09/29 10:05:49;;;;;;;17.15;7.68;;;13.50;99.90;;;;;;5014412;28;20033;-65
2021/09/29 10:08:16;;;;;;;11.50;6.63;;;14.80;99.90;;;;;;5011492;28;20928;-65
2021/09/29 10:10:59;;;;;;;11.30;7.00;;;14.70;99.90;;;;;;5015568;28;20029;-65
2021/09/29 10:13:40;;;;;;;13.23;7.00;;;14.70;99.90;;;;;;5020366;28;20488;-65
2021/09/29 10:24:09;;;;;;;10.00;5.45;;;14.70;99.90;;;;;;5023970;28;20091;-66
2021/09/29 10:26:35;;;;;;;8.95;5.18;;;14.50;99.90;;;;;;5018537;28;20034;-65
2021/09/29 10:29:00;;;;;;;10.20;5.85;;;14.60;99.90;;;;;;5017721;28;20543;-66
2021/09/29 10:31:43;;;;;;;14.18;6.22;;;15.00;99.90;;;;;;5017119;28;20033;-65
2021/09/29 10:34:12;;;;;;;12.88;6.43;;;14.80;99.90;;;;;;5017276;28;20045;-65
2021/09/29 10:36:43;;;;;;;9.95;5.97;;;14.60;99.90;;;;;;5015389;28;20037;-65
2021/09/29 10:47:06;;;;;;;7.63;5.03;;;14.70;99.90;;;;;;5015393;28;20178;-65
2021/09/29 10:49:49;;;;;;;10.43;5.75;;;14.70;99.90;;;;;;5015043;28;20137;-65
2021/09/29 11:27:36;;;;;;;15.18;9.10;;;15.20;99.90;;;;;;5007592;28;20030;-64
2021/09/29 11:30:06;;;;;;;;;;;15.10;99.90;;;;;;5017333;28;20042;-64
2021/09/29 11:32:38;;;;;;;17.25;9.50;;;15.10;99.90;;;;;;5011892;28;19995;-65
2021/09/29 11:35:14;;;;;;;16.75;10.63;;;15.00;99.90;;;;;;5019088;28;20034;-63
2021/09/29 11:38:16;;;;;;;20.05;10.65;;;15.00;99.90;;;;;;5010246;28;20033;-64
2021/09/29 12:08:19;;;;;;;30.33;17.73;;;16.00;99.90;;;;;;5015296;28;20037;-65
2021/09/29 12:10:45;;;;;;;29.02;17.08;;;16.00;99.90;;;;;;5020150;28;20041;-65
2021/09/29 12:13:10;;;;;;;30.27;18.00;;;15.80;99.90;;;;;;5016594;28;20033;-64
2021/09/29 12:15:36;;;;;;;33.25;19.33;;;15.70;99.90;;;;;;5011759;28;20040;-64
2021/09/29 12:18:01;;;;;;;32.88;18.63;;;15.60;99.90;;;;;;5012125;28;20079;-64
2021/09/29 12:20:28;;;;;;;32.78;19.45;;;15.60;99.90;;;;;;5015217;28;20505;-64
2021/09/29 12:22:55;;;;;;;34.85;19.83;;;15.50;99.90;;;;;;5010983;28;20041;-65
2021/09/29 12:25:20;;;;;;;29.80;18.17;;;15.60;99.90;;;;;;5013504;28;20108;-65
2021/09/29 12:30:11;;;;;;;32.55;17.85;;;15.70;99.90;;;;;;5007262;28;20525;-64
2021/09/29 12:32:53;;;;;;;29.92;17.40;;;15.90;99.90;;;;;;5007454;28;20167;-65
2021/09/29 12:35:32;;;;;;;30.15;17.83;;;16.00;99.90;;;;;;5017630;28;20053;-64
2021/09/29 12:37:58;;;;;;;29.48;17.98;;;16.00;99.90;;;;;;5012014;28;20122;-65
2021/09/29 12:40:23;;;;;;;30.33;17.63;;;16.10;99.90;;;;;;5009029;28;20148;-65
2021/09/29 12:42:49;;;;;;;28.38;17.70;;;16.10;99.90;;;;;;5010404;28;20042;-64
2021/09/29 12:45:14;;;;;;;28.90;18.20;;;16.10;99.90;;;;;;5006821;28;20032;-65
2021/09/29 12:47:45;;;;;;;29.55;17.42;;;16.20;99.90;;;;;;5012635;28;20112;-64
2021/09/29 12:50:16;;;;;;;33.55;18.42;;;16.20;99.90;;;;;;5009110;28;20029;-65
2021/09/29 12:53:04;;;;;;;34.70;19.88;;;16.10;99.90;;;;;;5010787;28;20049;-65
2021/09/29 12:55:34;;;;;;;32.20;18.83;;;16.10;99.90;;;;;;5018302;28;20711;-64
2021/09/29 12:58:00;;;;;;;34.38;18.58;;;16.10;99.90;;;;;;5013424;28;20130;-65
2021/09/29 13:00:26;;;;;;;32.97;19.17;;;16.10;99.90;;;;;;5012749;28;20104;-64
2021/09/29 13:02:51;;;;;;;33.53;19.23;;;16.20;99.90;;;;;;5012109;28;20444;-64
2021/09/29 13:05:17;;;;;;;29.13;17.25;;;16.30;99.90;;;;;;5012806;28;20041;-64
2021/09/29 13:07:42;;;;;;;30.38;18.15;;;16.40;99.90;;;;;;5009830;28;20033;-65
2021/09/29 13:10:08;;;;;;;30.60;18.02;;;16.30;99.90;;;;;;5012286;28;20030;-65
2021/09/29 13:12:34;;;;;;;34.22;18.33;;;16.30;99.90;;;;;;5016132;28;20066;-65
2021/09/29 13:14:59;;;;;;;31.77;17.98;;;16.30;99.90;;;;;;5015109;28;20835;-65
2021/09/29 13:17:25;;;;;;;29.55;17.92;;;16.20;99.90;;;;;;5008146;28;20076;-65
2021/09/29 13:20:01;;;;;;;29.92;17.75;;;16.20;99.90;;;;;;5012003;28;20042;-65
2021/09/29 13:22:28;;;;;;;28.75;17.73;;;16.20;99.90;;;;;;5014685;28;20557;-65
2021/09/29 13:38:08;;;;;;;24.30;15.32;;;17.00;99.90;;;;;;5012113;28;20041;-65
2021/09/29 13:40:34;;;;;;;23.85;13.65;;;17.30;99.90;;;;;;5013707;28;20068;-65
2021/09/29 13:43:01;;;;;;;23.85;14.20;;;17.10;99.90;;;;;;5016314;28;20088;-65
2021/09/29 13:45:26;;;;;;;23.40;14.20;;;17.00;99.90;;;;;;5003051;28;20045;-65
2021/09/29 13:47:52;;;;;;;26.92;15.88;;;17.00;99.90;;;;;;5009723;28;20030;-65
2021/09/29 13:50:19;;;;;;;25.73;15.68;;;16.90;99.90;;;;;;5004383;28;20055;-66
2021/09/29 13:52:45;;;;;;;24.00;14.52;;;16.80;99.90;;;;;;5015888;28;20029;-65
2021/09/29 13:55:15;;;;;;;23.80;14.23;;;16.70;99.90;;;;;;5014235;28;20979;-65
2021/09/29 13:57:45;;;;;;;22.55;13.90;;;16.70;99.90;;;;;;5009478;28;20056;-65
2021/09/29 14:00:23;;;;;;;19.75;12.55;;;17.40;99.90;;;;;;5015440;28;20038;-65
2021/09/29 14:03:17;;;;;;;19.38;11.00;;;;;;;;;;5016473;28;20053;-66
2021/09/29 14:30:20;;;;;;;17.95;10.75;;;17.50;99.90;;;;;;5004592;28;20145;-65
2021/09/29 14:35:17;;;;;;;21.60;10.52;;;17.60;99.90;;;;;;5011836;28;20261;-66
2021/09/29 14:37:43;;;;;;;23.88;9.80;;;17.70;99.90;;;;;;5010253;28;20033;-64
2021/09/29 14:40:08;;;;;;;16.75;10.20;;;17.60;99.90;;;;;;5012336;28;20428;-64
2021/09/29 14:42:33;;;;;;;18.58;9.82;;;17.60;99.90;;;;;;5017293;28;20033;-63
2021/09/29 14:44:59;;;;;;;20.65;10.38;;;17.40;99.90;;;;;;5018528;28;20112;-64
2021/09/29 14:47:24;;;;;;;15.73;10.13;;;17.30;99.90;;;;;;5014403;28;20044;-64
2021/09/29 14:49:50;;;;;;;14.50;9.02;;;17.00;99.90;;;;;;5018497;28;20033;-65
2021/09/29 14:52:15;;;;;;;14.63;9.15;;;17.00;99.90;;;;;;5018611;28;20095;-65
2021/09/29 14:54:41;;;;;;;15.18;9.32;;;17.10;99.90;;;;;;5014960;28;20477;-64
2021/09/29 14:57:10;;;;;;;15.98;8.75;;;17.30;99.90;;;;;;5015701;28;20040;-64
2021/09/29 14:59:35;;;;;;;16.17;9.02;;;17.30;99.90;;;;;;5012151;28;20045;-64
2021/09/29 15:02:01;;;;;;;12.95;8.13;;;17.40;99.90;;;;;;5016567;28;20041;-64
2021/09/29 15:04:26;;;;;;;12.27;7.88;;;17.40;99.90;;;;;;5019545;28;20033;-64
2021/09/29 15:06:52;;;;;;;12.38;8.02;;;17.30;99.90;;;;;;5013537;28;20038;-64
2021/09/29 15:09:17;;;;;;;14.30;8.73;;;17.30;99.90;;;;;;5019444;28;20083;-63
2021/09/29 15:11:43;;;;;;;22.08;13.70;;;17.30;99.90;;;;;;5013492;28;20025;-64
2021/09/29 15:14:12;;;;;;;16.38;7.55;;;17.30;99.90;;;;;;5009861;28;20116;-64
2021/09/29 15:22:08;;;;;;;13.93;8.32;;;17.20;99.90;;;;;;5012784;28;20512;-64
2021/09/29 15:24:48;;;;;;;15.43;8.25;;;17.10;99.90;;;;;;5010467;28;20046;-64
2021/09/29 15:54:16;;;;;;;24.25;13.15;;;16.30;99.90;;;;;;5017113;28;20041;-64
2021/09/29 15:59:33;;;;;;;35.35;18.27;;;16.20;99.90;;;;;;5006992;28;20038;-63
2021/09/29 16:02:01;;;;;;;18.35;9.77;;;16.10;99.90;;;;;;5009264;28;20042;-64
2021/09/29 16:10:08;;;;;;;10.93;7.32;;;15.90;99.90;;;;;;5018697;28;20741;-64
2021/09/29 16:13:18;;;;;;;10.65;6.30;;;15.80;99.90;;;;;;5009506;28;20037;-64
2021/09/29 16:31:12;;;;;;;9.18;6.68;;;15.30;99.90;;;;;;5012620;28;20062;-64
2021/09/29 16:36:06;;;;;;;18.70;6.93;;;15.10;99.90;;;;;;5016017;28;20040;-64
2021/09/29 16:38:32;;;;;;;13.65;6.38;;;15.00;99.90;;;;;;5009473;28;20029;-64
2021/09/29 16:40:57;;;;;;;12.20;6.93;;;15.00;99.90;;;;;;5017310;28;20033;-64
2021/09/29 16:43:23;;;;;;;8.93;6.50;;;14.90;99.90;;;;;;5015488;28;20771;-64
2021/09/29 16:45:49;;;;;;;8.02;5.78;;;14.80;99.90;;;;;;5011181;28;20037;-64
2021/09/29 16:48:17;;;;;;;13.02;6.38;;;14.80;99.90;;;;;;5009562;28;20033;-64
2021/09/29 16:51:30;;;;;;;10.25;6.38;;;14.70;99.90;;;;;;5012756;28;20112;-64
2021/09/29 16:53:34;;;;;;;11.05;5.93;;;14.60;99.90;;;;;;5009893;28;20062;-64